Time;durP1;ratioP1;P1;durP2;ratioP2;P2;SDS_P1;SDS_P2;PMS_P1;PMS_P2;Temp;Humidity;BMP_temperature;BMP_pressure;BME280_temperature;BME280_humidity;BME280_pressure;Samples;Min_cycle;Max_cycle;Signal;HPM_P1;HPM_P2
2022/04/14 00:00:41;;;;;;;6.37;2.40;;;17.60;84.10;;;;;;2011678;28;20181;-74
2022/04/14 00:01:39;;;;;;;4.45;2.63;;;17.60;84.00;;;;;;2011698;28;20478;-74
2022/04/14 00:02:38;;;;;;;3.40;2.40;;;17.60;84.00;;;;;;2011436;28;20635;-74
2022/04/14 00:03:36;;;;;;;4.50;2.73;;;17.50;83.90;;;;;;2011817;28;20207;-74
2022/04/14 00:04:35;;;;;;;3.23;2.20;;;17.60;84.00;;;;;;2012229;28;20172;-74
2022/04/14 00:05:33;;;;;;;4.20;2.60;;;17.60;84.00;;;;;;2012306;28;20202;-74
2022/04/14 00:06:33;;;;;;;5.70;2.10;;;17.60;84.00;;;;;;2012143;28;20196;-74
2022/04/14 00:07:31;;;;;;;5.15;1.83;;;17.60;84.00;;;;;;2012256;28;20290;-74
2022/04/14 00:08:30;;;;;;;5.07;2.20;;;17.60;83.90;;;;;;2012276;28;20263;-74
2022/04/14 00:09:28;;;;;;;5.70;2.40;;;17.60;84.10;;;;;;2012368;28;20168;-74
2022/04/14 00:10:27;;;;;;;3.67;2.17;;;17.60;84.00;;;;;;2012302;28;20172;-74
2022/04/14 00:11:25;;;;;;;7.03;2.63;;;17.60;84.00;;;;;;2012286;28;20231;-74
2022/04/14 00:12:24;;;;;;;6.33;2.67;;;17.60;84.00;;;;;;2012375;28;20169;-74
2022/04/14 00:13:23;;;;;;;6.40;2.30;;;17.60;84.00;;;;;;2012219;28;20168;-74
2022/04/14 00:14:22;;;;;;;5.73;3.00;;;17.60;84.10;;;;;;2012276;28;20267;-74
2022/04/14 00:15:20;;;;;;;3.88;2.47;;;17.60;84.10;;;;;;2012219;28;20255;-74
2022/04/14 00:16:19;;;;;;;4.00;2.10;;;17.60;84.10;;;;;;2012241;28;20189;-74
2022/04/14 00:17:17;;;;;;;4.97;2.60;;;17.60;84.20;;;;;;2012417;28;20179;-74
2022/04/14 00:18:16;;;;;;;3.70;2.10;;;17.60;84.20;;;;;;2012286;28;20642;-74
2022/04/14 00:19:14;;;;;;;4.13;2.27;;;17.60;84.10;;;;;;2012237;28;20194;-75
2022/04/14 00:20:13;;;;;;;4.07;1.97;;;17.60;84.20;;;;;;2012263;28;20189;-73
2022/04/14 00:21:11;;;;;;;4.43;2.33;;;17.60;84.10;;;;;;2012203;28;20172;-76
2022/04/14 00:22:10;;;;;;;5.97;2.10;;;17.60;84.10;;;;;;2012161;28;20271;-73
2022/04/14 00:23:09;;;;;;;5.93;2.90;;;17.60;84.10;;;;;;2011632;28;20257;-74
2022/04/14 00:24:07;;;;;;;3.00;2.33;;;17.60;84.30;;;;;;2012436;28;20186;-74
2022/04/14 00:25:06;;;;;;;6.10;2.37;;;17.60;84.10;;;;;;2013845;28;20173;-73
2022/04/14 00:26:05;;;;;;;3.90;1.95;;;17.60;84.10;;;;;;2013741;28;20180;-73
2022/04/14 00:27:04;;;;;;;9.70;2.40;;;17.60;84.20;;;;;;2013637;28;20224;-77
2022/04/14 00:28:03;;;;;;;3.57;2.10;;;17.60;84.20;;;;;;2013654;28;20350;-74
2022/04/14 00:29:01;;;;;;;5.00;2.33;;;17.60;84.20;;;;;;2013451;28;20454;-74
2022/04/14 00:30:00;;;;;;;3.43;1.67;;;17.60;84.10;;;;;;2013594;28;20293;-74
2022/04/14 00:30:59;;;;;;;3.53;1.80;;;17.60;84.20;;;;;;2013821;28;20694;-75
2022/04/14 00:31:58;;;;;;;3.28;2.17;;;17.60;84.10;;;;;;2013704;28;20694;-75
2022/04/14 00:32:57;;;;;;;3.07;1.90;;;17.60;84.10;;;;;;2013789;28;20191;-76
2022/04/14 00:33:56;;;;;;;4.28;2.10;;;17.60;84.20;;;;;;2012825;28;20547;-73
2022/04/14 00:34:54;;;;;;;3.13;1.90;;;17.60;84.10;;;;;;2013185;28;20181;-74
2022/04/14 00:35:53;;;;;;;4.93;2.13;;;17.60;84.10;;;;;;2013541;28;20176;-74
2022/04/14 00:36:51;;;;;;;4.73;2.60;;;17.60;84.30;;;;;;2013691;28;20184;-75
2022/04/14 00:37:50;;;;;;;3.13;2.03;;;17.60;84.30;;;;;;2013745;28;20172;-73
2022/04/14 00:38:48;;;;;;;3.40;2.10;;;17.60;84.20;;;;;;2013624;28;20226;-73
2022/04/14 00:39:49;;;;;;;5.03;2.27;;;17.60;84.20;;;;;;2013706;28;20179;-74
2022/04/14 00:40:49;;;;;;;4.07;2.22;;;17.60;84.20;;;;;;2013645;28;20198;-73
2022/04/14 00:41:47;;;;;;;4.68;2.55;;;17.60;84.20;;;;;;2013587;28;20199;-73
2022/04/14 00:42:46;;;;;;;4.10;2.27;;;17.60;84.20;;;;;;2013614;28;20207;-76
2022/04/14 00:43:50;;;;;;;4.03;1.87;;;17.60;84.10;;;;;;2013585;28;20180;-73
2022/04/14 00:44:48;;;;;;;3.58;2.30;;;17.60;84.30;;;;;;2013670;28;20161;-74
2022/04/14 00:45:49;;;;;;;2.20;1.90;;;17.50;84.10;;;;;;2013707;28;20169;-74
2022/04/14 00:46:48;;;;;;;3.60;2.40;;;17.60;84.30;;;;;;2012931;28;20540;-74
2022/04/14 00:47:46;;;;;;;9.70;2.53;;;17.60;84.30;;;;;;2013151;28;20175;-73
2022/04/14 00:48:45;;;;;;;3.40;2.23;;;17.60;84.30;;;;;;2013477;28;20255;-74
2022/04/14 00:49:44;;;;;;;5.75;2.45;;;17.60;84.30;;;;;;2013814;28;20173;-74
2022/04/14 00:50:43;;;;;;;4.50;2.50;;;17.60;84.30;;;;;;2013619;28;20182;-74
2022/04/14 00:51:41;;;;;;;7.03;2.50;;;17.60;84.30;;;;;;2013517;28;20213;-73
2022/04/14 00:52:45;;;;;;;8.57;2.30;;;17.60;84.20;;;;;;2013619;28;20247;-73
2022/04/14 00:53:43;;;;;;;3.25;2.95;;;17.60;84.20;;;;;;2013388;28;20216;-73
2022/04/14 00:54:42;;;;;;;3.20;1.97;;;17.60;84.30;;;;;;2013560;28;20225;-74
2022/04/14 00:55:40;;;;;;;3.57;2.43;;;17.60;84.30;;;;;;2012783;28;20181;-74
2022/04/14 00:56:39;;;;;;;6.73;3.20;;;17.60;84.40;;;;;;2012992;28;20219;-74
2022/04/14 00:57:38;;;;;;;2.60;1.97;;;17.60;84.40;;;;;;2013459;28;20179;-73
2022/04/14 00:58:36;;;;;;;4.50;1.97;;;17.60;84.30;;;;;;2012907;28;20177;-74
2022/04/14 00:59:35;;;;;;;3.70;1.97;;;17.60;84.40;;;;;;2012912;28;20655;-73
2022/04/14 01:00:34;;;;;;;11.27;2.70;;;17.60;84.40;;;;;;2013494;28;20474;-74
2022/04/14 01:01:32;;;;;;;6.63;2.90;;;17.60;84.40;;;;;;2013475;28;20602;-75
2022/04/14 01:02:32;;;;;;;2.87;1.80;;;17.60;84.40;;;;;;2013468;28;20284;-75
2022/04/14 01:03:32;;;;;;;3.00;2.30;;;17.60;84.40;;;;;;2013480;28;20168;-74
2022/04/14 01:04:31;;;;;;;6.13;2.53;;;17.60;84.40;;;;;;2012862;28;20243;-74
2022/04/14 01:05:31;;;;;;;5.88;2.60;;;17.60;84.50;;;;;;2012908;28;20173;-74
2022/04/14 01:06:31;;;;;;;3.08;2.20;;;17.60;84.50;;;;;;2013599;28;20520;-73
2022/04/14 01:07:33;;;;;;;6.50;2.38;;;17.60;84.40;;;;;;2013363;28;20267;-74
2022/04/14 01:08:32;;;;;;;5.90;2.95;;;17.60;84.40;;;;;;2013386;28;20180;-74
2022/04/14 01:09:31;;;;;;;3.50;2.10;;;17.60;84.40;;;;;;2012665;28;20195;-74
2022/04/14 01:10:30;;;;;;;3.07;2.50;;;17.60;84.50;;;;;;2012742;28;20252;-75
2022/04/14 01:11:29;;;;;;;3.85;2.20;;;17.60;84.40;;;;;;2013337;28;20180;-74
2022/04/14 01:12:30;;;;;;;8.37;2.43;;;17.60;84.50;;;;;;2013322;28;20582;-74
2022/04/14 01:13:28;;;;;;;2.58;1.88;;;17.60;84.40;;;;;;2013392;28;20188;-74
2022/04/14 01:14:34;;;;;;;3.63;2.40;;;17.60;84.40;;;;;;2013373;28;20208;-74
2022/04/14 01:15:33;;;;;;;5.57;2.58;;;17.60;84.40;;;;;;2013665;28;20168;-76
2022/04/14 01:16:31;;;;;;;5.93;3.37;;;17.60;84.40;;;;;;2013345;28;20297;-75
2022/04/14 01:17:30;;;;;;;6.03;2.70;;;17.60;84.50;;;;;;2014236;28;20191;-74
2022/04/14 01:18:29;;;;;;;4.53;2.57;;;17.60;84.60;;;;;;2014699;28;20206;-74
2022/04/14 01:19:27;;;;;;;3.33;2.30;;;17.60;84.50;;;;;;2014487;28;20176;-74
2022/04/14 01:20:26;;;;;;;6.70;2.43;;;17.60;84.60;;;;;;2014754;28;20205;-75
2022/04/14 01:21:30;;;;;;;6.27;2.37;;;17.60;84.60;;;;;;2014797;28;20415;-74
2022/04/14 01:22:34;;;;;;;6.90;3.22;;;17.60;84.60;;;;;;2015508;28;20314;-74
2022/04/14 01:23:42;;;;;;;4.50;2.45;;;17.60;84.60;;;;;;2015632;28;20260;-75
2022/04/14 01:24:41;;;;;;;2.55;1.90;;;17.60;84.60;;;;;;2017506;28;20160;-76
2022/04/14 01:25:41;;;;;;;2.80;2.50;;;17.60;84.60;;;;;;2015989;28;20182;-74
2022/04/14 01:26:41;;;;;;;3.70;2.30;;;17.60;84.60;;;;;;2015341;28;20196;-74
2022/04/14 01:27:39;;;;;;;3.00;2.05;;;17.60;84.60;;;;;;2015023;28;20263;-74
2022/04/14 01:28:38;;;;;;;3.03;2.00;;;17.60;84.50;;;;;;2013989;28;20215;-74
2022/04/14 01:29:36;;;;;;;3.23;2.00;;;17.60;84.60;;;;;;2013786;28;20172;-74
2022/04/14 01:30:36;;;;;;;4.23;2.03;;;17.60;84.50;;;;;;2013271;28;20176;-74
2022/04/14 01:31:34;;;;;;;2.40;1.88;;;17.60;84.50;;;;;;2013238;28;20508;-74
2022/04/14 01:32:33;;;;;;;7.70;2.17;;;17.60;84.60;;;;;;2013611;28;20229;-74
2022/04/14 01:33:31;;;;;;;3.40;2.57;;;17.60;84.50;;;;;;2013855;28;20200;-74
2022/04/14 01:34:30;;;;;;;5.60;2.00;;;17.60;84.60;;;;;;2014290;28;20173;-74
2022/04/14 01:35:29;;;;;;;3.60;2.70;;;17.60;84.60;;;;;;2013541;28;20180;-74
2022/04/14 01:36:27;;;;;;;2.87;2.07;;;17.60;84.50;;;;;;2014654;28;20176;-74
2022/04/14 01:37:26;;;;;;;9.80;2.83;;;17.60;84.60;;;;;;2014323;28;20188;-74
2022/04/14 01:38:24;;;;;;;2.90;1.90;;;17.60;84.60;;;;;;2014906;28;20263;-74
2022/04/14 01:39:23;;;;;;;2.70;2.17;;;17.50;84.50;;;;;;2014761;28;20259;-74
2022/04/14 01:40:22;;;;;;;2.65;1.95;;;17.50;84.60;;;;;;2013514;28;20184;-74
2022/04/14 01:41:21;;;;;;;3.87;2.37;;;17.60;84.60;;;;;;2013837;28;20538;-74
2022/04/14 01:42:19;;;;;;;4.43;2.20;;;17.60;84.70;;;;;;2013145;28;20904;-75
2022/04/14 01:43:18;;;;;;;3.20;2.17;;;17.60;84.70;;;;;;2012457;28;20269;-75
2022/04/14 01:44:16;;;;;;;3.53;2.33;;;17.50;84.60;;;;;;2012679;28;20208;-74
2022/04/14 01:45:16;;;;;;;3.53;1.40;;;17.60;84.60;;;;;;2013177;28;20172;-74
2022/04/14 01:46:15;;;;;;;2.72;2.30;;;17.60;84.70;;;;;;2013027;28;20172;-75
2022/04/14 01:47:13;;;;;;;2.67;2.00;;;17.60;84.70;;;;;;2013401;28;20172;-75
2022/04/14 01:48:11;;;;;;;3.07;2.00;;;17.60;85.20;;;;;;2013140;28;20192;-76
2022/04/14 01:49:10;;;;;;;2.27;1.53;;;17.50;84.70;;;;;;2012959;28;20208;-74
2022/04/14 01:50:12;;;;;;;3.63;1.93;;;17.60;84.60;;;;;;2013111;28;20649;-74
2022/04/14 01:51:10;;;;;;;5.72;1.70;;;17.50;84.60;;;;;;2013127;28;20172;-74
2022/04/14 01:52:10;;;;;;;6.10;2.10;;;17.60;84.70;;;;;;2013043;28;20215;-74
2022/04/14 01:53:09;;;;;;;4.83;2.07;;;17.50;84.70;;;;;;2013219;28;20223;-73
2022/04/14 01:54:07;;;;;;;3.47;2.13;;;17.50;84.60;;;;;;2012885;28;20216;-75
2022/04/14 01:55:06;;;;;;;3.83;2.03;;;17.60;84.70;;;;;;2013162;28;20168;-76
2022/04/14 01:56:05;;;;;;;6.60;2.50;;;17.50;84.50;;;;;;2012921;28;20172;-75
2022/04/14 01:57:04;;;;;;;3.77;2.43;;;17.60;84.70;;;;;;2012416;28;20196;-73
2022/04/14 01:58:03;;;;;;;4.13;2.20;;;17.60;84.60;;;;;;2004429;28;20173;-74
2022/04/14 01:59:03;;;;;;;4.50;2.20;;;17.50;85.20;;;;;;2012049;28;20291;-74
2022/04/14 02:00:05;;;;;;;6.45;2.42;;;17.60;84.70;;;;;;2013044;28;20172;-74
2022/04/14 02:01:04;;;;;;;3.58;2.22;;;17.60;84.60;;;;;;2012423;28;20207;-74
2022/04/14 02:02:03;;;;;;;3.10;2.30;;;17.60;84.60;;;;;;2012570;28;20274;-74
2022/04/14 02:03:01;;;;;;;6.00;2.40;;;17.60;84.70;;;;;;2013125;28;20204;-73
2022/04/14 02:04:02;;;;;;;3.30;2.37;;;17.50;84.60;;;;;;2012245;28;20176;-76
2022/04/14 02:05:01;;;;;;;4.50;1.80;;;17.60;84.70;;;;;;2012338;28;20172;-74
2022/04/14 02:06:00;;;;;;;5.13;2.20;;;17.60;84.70;;;;;;2013154;28;20604;-74
2022/04/14 02:06:58;;;;;;;3.63;2.40;;;17.60;84.60;;;;;;2012810;28;20231;-75
2022/04/14 02:07:57;;;;;;;4.50;2.33;;;17.60;84.70;;;;;;2012663;28;20717;-76
2022/04/14 02:08:55;;;;;;;3.70;1.77;;;17.60;84.60;;;;;;2012817;28;20689;-76
2022/04/14 02:09:54;;;;;;;4.70;2.00;;;17.60;84.60;;;;;;2012995;28;20578;-75
2022/04/14 02:10:53;;;;;;;4.20;2.47;;;17.60;84.60;;;;;;2013089;28;20165;-75
2022/04/14 02:11:51;;;;;;;5.57;2.27;;;17.60;84.60;;;;;;2012861;28;20174;-76
2022/04/14 02:12:50;;;;;;;2.80;1.80;;;17.60;84.60;;;;;;2012903;28;20530;-74
2022/04/14 02:13:48;;;;;;;9.83;2.60;;;17.50;84.60;;;;;;2012950;28;20532;-73
2022/04/14 02:14:47;;;;;;;5.07;2.43;;;17.60;84.60;;;;;;2012901;28;20697;-76
2022/04/14 02:15:45;;;;;;;3.87;2.37;;;17.50;84.50;;;;;;2012854;28;20168;-75
2022/04/14 02:16:44;;;;;;;3.93;1.97;;;17.60;84.70;;;;;;2012862;28;20271;-74
2022/04/14 02:17:42;;;;;;;2.93;1.97;;;17.60;84.70;;;;;;2012864;28;20164;-75
2022/04/14 02:18:42;;;;;;;3.50;2.10;;;17.60;84.60;;;;;;2012902;28;20176;-74
2022/04/14 02:19:40;;;;;;;3.30;2.40;;;17.50;84.70;;;;;;2012981;28;20176;-74
2022/04/14 02:20:39;;;;;;;4.03;2.07;;;17.60;84.70;;;;;;2012969;28;20226;-74
2022/04/14 02:21:38;;;;;;;5.23;2.70;;;17.50;84.60;;;;;;2012812;28;20175;-75
2022/04/14 02:22:43;;;;;;;4.50;2.00;;;17.50;84.60;;;;;;2013064;28;20196;-73
2022/04/14 02:23:41;;;;;;;5.00;2.75;;;17.50;84.60;;;;;;2012730;28;20169;-74
2022/04/14 02:24:40;;;;;;;7.63;2.33;;;17.50;84.60;;;;;;2012846;28;20187;-74
2022/04/14 02:25:38;;;;;;;6.60;2.10;;;17.60;84.60;;;;;;2012866;28;20196;-74
2022/04/14 02:26:37;;;;;;;3.33;2.17;;;17.50;84.50;;;;;;2012062;28;20202;-74
2022/04/14 02:27:35;;;;;;;6.47;1.90;;;17.60;84.60;;;;;;2012317;28;20239;-74
2022/04/14 02:28:34;;;;;;;2.77;1.80;;;17.60;84.60;;;;;;2012619;28;20176;-75
2022/04/14 02:29:32;;;;;;;3.90;1.90;;;17.60;84.60;;;;;;2012740;28;20196;-74
2022/04/14 02:30:33;;;;;;;3.77;2.40;;;17.50;84.60;;;;;;2012705;28;20173;-74
2022/04/14 02:31:31;;;;;;;3.28;2.50;;;17.60;84.70;;;;;;2012969;28;20168;-75
2022/04/14 02:32:30;;;;;;;7.40;2.20;;;17.50;84.70;;;;;;2012776;28;20580;-75
2022/04/14 02:33:28;;;;;;;5.70;3.10;;;17.50;84.60;;;;;;2012836;28;20215;-73
2022/04/14 02:34:27;;;;;;;6.47;2.83;;;17.50;84.70;;;;;;2012840;28;20623;-75
2022/04/14 02:35:26;;;;;;;3.10;2.30;;;17.50;84.70;;;;;;2012570;28;20270;-74
2022/04/14 02:36:24;;;;;;;3.37;2.40;;;17.60;84.80;;;;;;2012765;28;20495;-74
2022/04/14 02:37:23;;;;;;;3.00;1.93;;;17.50;84.70;;;;;;2012659;28;20171;-73
2022/04/14 02:38:21;;;;;;;4.83;2.27;;;17.50;84.60;;;;;;2012738;28;20172;-73
2022/04/14 02:39:20;;;;;;;5.73;2.00;;;17.50;84.50;;;;;;2012642;28;20196;-76
2022/04/14 02:40:18;;;;;;;5.47;2.70;;;17.60;84.70;;;;;;2012720;28;20259;-74
2022/04/14 02:41:17;;;;;;;3.70;2.70;;;17.50;84.50;;;;;;2012789;28;20169;-74
2022/04/14 02:42:15;;;;;;;3.77;2.30;;;17.50;84.60;;;;;;2012647;28;20180;-74
2022/04/14 02:43:14;;;;;;;5.20;2.87;;;17.60;84.70;;;;;;2012658;28;20169;-74
2022/04/14 02:44:12;;;;;;;6.57;3.40;;;17.60;84.70;;;;;;2012718;28;20175;-74
2022/04/14 02:45:11;;;;;;;6.10;3.80;;;17.50;84.60;;;;;;2012597;28;20180;-74
2022/04/14 02:46:10;;;;;;;6.43;3.00;;;17.50;84.70;;;;;;2012707;28;20180;-74
2022/04/14 02:47:08;;;;;;;4.37;3.17;;;17.60;84.70;;;;;;2012418;28;20577;-74
2022/04/14 02:48:08;;;;;;;5.50;2.67;;;17.50;84.70;;;;;;2011921;28;20243;-74
2022/04/14 02:49:07;;;;;;;5.47;2.90;;;17.50;84.70;;;;;;2012124;28;20196;-74
2022/04/14 02:50:06;;;;;;;5.30;2.47;;;17.50;84.80;;;;;;2012723;28;20667;-74
2022/04/14 02:51:05;;;;;;;6.18;2.75;;;17.50;84.70;;;;;;2012554;28;20268;-75
2022/04/14 02:52:04;;;;;;;4.60;2.37;;;17.50;84.70;;;;;;2012717;28;20184;-75
2022/04/14 02:53:02;;;;;;;4.17;2.63;;;17.50;84.70;;;;;;2012574;28;20174;-74
2022/04/14 02:54:01;;;;;;;4.00;2.73;;;17.60;84.90;;;;;;2012732;28;20520;-74
2022/04/14 02:54:59;;;;;;;3.67;2.57;;;17.50;84.80;;;;;;2013883;28;20242;-75
2022/04/14 02:55:58;;;;;;;5.13;2.80;;;17.50;84.80;;;;;;2013589;28;20244;-74
2022/04/14 02:56:56;;;;;;;7.30;2.77;;;17.50;84.80;;;;;;2013213;28;20215;-74
2022/04/14 02:57:55;;;;;;;7.37;2.53;;;17.50;84.80;;;;;;2013016;28;20299;-74
2022/04/14 02:58:53;;;;;;;3.20;2.60;;;17.50;84.80;;;;;;2013053;28;20536;-74
2022/04/14 02:59:52;;;;;;;6.30;3.27;;;17.50;84.70;;;;;;2012871;28;20631;-75
2022/04/14 03:00:51;;;;;;;8.10;3.03;;;17.50;84.70;;;;;;2012637;28;20341;-74
2022/04/14 03:01:49;;;;;;;4.87;2.70;;;17.50;84.80;;;;;;2012673;28;20259;-75
2022/04/14 03:02:49;;;;;;;3.43;2.13;;;17.50;84.80;;;;;;2012228;28;20173;-74
2022/04/14 03:03:47;;;;;;;7.88;2.67;;;17.50;84.90;;;;;;2012138;28;20176;-74
2022/04/14 03:04:45;;;;;;;5.40;3.20;;;17.50;84.80;;;;;;2012588;28;20550;-74
2022/04/14 03:05:44;;;;;;;5.20;2.63;;;17.50;84.80;;;;;;2012656;28;20172;-74
2022/04/14 03:06:43;;;;;;;5.00;2.63;;;17.50;84.80;;;;;;2012525;28;20254;-74
2022/04/14 03:07:41;;;;;;;2.70;2.30;;;17.50;84.80;;;;;;2012664;28;20179;-74
2022/04/14 03:08:40;;;;;;;3.67;2.47;;;17.50;84.80;;;;;;2012328;28;20199;-74
2022/04/14 03:09:38;;;;;;;2.60;1.93;;;17.50;84.90;;;;;;2012703;28;20169;-74
2022/04/14 03:10:37;;;;;;;3.23;2.40;;;17.50;84.80;;;;;;2012610;28;20567;-74
2022/04/14 03:11:35;;;;;;;3.67;2.73;;;17.50;84.90;;;;;;2012470;28;20203;-75
2022/04/14 03:12:46;;;;;;;6.10;3.00;;;17.50;85.00;;;;;;2012518;28;20176;-75
2022/04/14 03:13:45;;;;;;;5.55;3.03;;;17.50;84.80;;;;;;2011797;28;20172;-75
2022/04/14 03:14:43;;;;;;;5.07;3.00;;;17.50;85.00;;;;;;2011983;28;20187;-74
2022/04/14 03:15:42;;;;;;;5.50;2.67;;;17.50;85.00;;;;;;2012491;28;20611;-75
2022/04/14 03:16:41;;;;;;;6.67;3.60;;;17.50;85.00;;;;;;2012434;28;20211;-75
2022/04/14 03:17:40;;;;;;;7.37;3.17;;;17.50;84.90;;;;;;2012474;28;20181;-74
2022/04/14 03:18:38;;;;;;;4.15;2.38;;;17.50;85.00;;;;;;2012468;28;20165;-76
2022/04/14 03:19:37;;;;;;;4.60;2.83;;;17.50;85.00;;;;;;2012616;28;20227;-75
2022/04/14 03:20:35;;;;;;;3.67;2.73;;;17.50;85.00;;;;;;2012459;28;20169;-73
2022/04/14 03:21:33;;;;;;;4.03;2.77;;;17.50;85.00;;;;;;2012375;28;20180;-75
2022/04/14 03:22:33;;;;;;;7.00;2.63;;;17.50;84.90;;;;;;2012446;28;20175;-74
2022/04/14 03:23:31;;;;;;;6.72;3.05;;;17.50;84.90;;;;;;2012444;28;20188;-74
2022/04/14 03:24:30;;;;;;;3.90;2.87;;;17.50;84.90;;;;;;2012452;28;20176;-77
2022/04/14 03:25:29;;;;;;;5.87;3.17;;;17.50;85.00;;;;;;2012402;28;20272;-74
2022/04/14 03:26:27;;;;;;;7.40;2.87;;;17.50;84.90;;;;;;2012327;28;20252;-75
2022/04/14 03:27:26;;;;;;;7.90;3.80;;;17.50;85.00;;;;;;2012502;28;20198;-75
2022/04/14 03:28:24;;;;;;;5.50;2.90;;;17.50;85.00;;;;;;2012424;28;20187;-74
2022/04/14 03:29:23;;;;;;;4.93;3.20;;;17.30;84.80;;;;;;2012388;28;20207;-74
2022/04/14 03:30:22;;;;;;;4.90;2.90;;;17.50;84.90;;;;;;2012499;28;20685;-74
2022/04/14 03:31:20;;;;;;;8.23;3.30;;;17.50;85.00;;;;;;2012276;28;20502;-74
2022/04/14 03:32:19;;;;;;;6.37;3.10;;;17.50;85.00;;;;;;2011598;28;20184;-73
2022/04/14 03:33:18;;;;;;;5.70;2.70;;;17.50;85.00;;;;;;2011746;28;20185;-73
2022/04/14 03:34:16;;;;;;;4.10;2.53;;;17.50;85.00;;;;;;2011728;28;20230;-74
2022/04/14 03:35:15;;;;;;;5.80;3.07;;;17.50;85.00;;;;;;2011941;28;20453;-74
2022/04/14 03:36:14;;;;;;;4.15;2.63;;;17.50;85.00;;;;;;2012223;28;20207;-75
2022/04/14 03:37:13;;;;;;;6.17;3.23;;;17.50;85.10;;;;;;2012322;28;20187;-74
2022/04/14 03:38:11;;;;;;;7.00;3.23;;;17.50;85.00;;;;;;2012357;28;20200;-74
2022/04/14 03:39:10;;;;;;;6.60;3.43;;;17.50;85.10;;;;;;2012352;28;20181;-73
2022/04/14 03:40:11;;;;;;;3.87;2.60;;;17.50;85.00;;;;;;2012506;28;20191;-75
2022/04/14 03:41:09;;;;;;;5.28;2.95;;;17.50;85.00;;;;;;2012208;28;20173;-75
2022/04/14 03:42:08;;;;;;;4.33;3.00;;;17.50;85.00;;;;;;2012305;28;20204;-73
2022/04/14 03:43:06;;;;;;;5.67;3.07;;;17.50;85.00;;;;;;2012423;28;20180;-73
2022/04/14 03:44:05;;;;;;;4.30;3.20;;;17.50;85.00;;;;;;2012409;28;20255;-74
2022/04/14 03:45:07;;;;;;;4.00;2.90;;;17.40;85.00;;;;;;2012344;28;20254;-73
2022/04/14 03:46:06;;;;;;;5.43;3.22;;;17.50;85.20;;;;;;2012244;28;20265;-74
2022/04/14 03:47:05;;;;;;;4.20;2.77;;;17.40;85.00;;;;;;2012326;28;20251;-73
2022/04/14 03:48:04;;;;;;;3.87;3.10;;;17.40;85.00;;;;;;2012316;28;20172;-73
2022/04/14 03:49:03;;;;;;;5.67;2.83;;;17.40;85.00;;;;;;2012374;28;20538;-74
2022/04/14 03:50:03;;;;;;;4.43;3.20;;;17.50;85.00;;;;;;2012440;28;20482;-74
2022/04/14 03:51:03;;;;;;;4.90;2.90;;;17.40;84.90;;;;;;2012309;28;20688;-74
2022/04/14 03:52:01;;;;;;;3.28;2.60;;;17.40;85.00;;;;;;2012361;28;20204;-74
2022/04/14 03:53:00;;;;;;;5.77;3.30;;;17.40;85.00;;;;;;2012412;28;20586;-73
2022/04/14 03:53:59;;;;;;;6.55;3.05;;;17.40;85.10;;;;;;2012263;28;20626;-74
2022/04/14 03:54:58;;;;;;;4.60;3.30;;;17.40;85.00;;;;;;2012557;28;20180;-73
2022/04/14 03:55:56;;;;;;;3.30;2.57;;;17.40;85.10;;;;;;2012293;28;20184;-73
2022/04/14 03:56:55;;;;;;;5.40;3.13;;;17.40;85.00;;;;;;2012250;28;20211;-74
2022/04/14 03:57:53;;;;;;;4.20;3.10;;;17.50;85.10;;;;;;2012297;28;20172;-74
2022/04/14 03:58:52;;;;;;;4.20;2.70;;;17.40;85.00;;;;;;2012687;28;20180;-74
2022/04/14 03:59:50;;;;;;;5.40;3.50;;;17.40;85.00;;;;;;2013880;28;20172;-74
2022/04/14 04:00:49;;;;;;;8.13;2.97;;;17.40;85.10;;;;;;2013585;28;20180;-74
2022/04/14 04:01:47;;;;;;;3.93;3.07;;;17.40;85.20;;;;;;2013324;28;20635;-74
2022/04/14 04:02:46;;;;;;;7.33;3.03;;;17.40;85.20;;;;;;2013936;28;20165;-74
2022/04/14 04:03:45;;;;;;;7.97;2.50;;;17.40;85.10;;;;;;2014034;28;20177;-73
2022/04/14 04:04:43;;;;;;;3.23;2.70;;;17.50;85.20;;;;;;2013887;28;20231;-75
2022/04/14 04:05:42;;;;;;;5.07;2.83;;;17.40;85.10;;;;;;2013931;28;20511;-74
2022/04/14 04:06:40;;;;;;;7.77;2.90;;;17.40;85.10;;;;;;2013701;28;20192;-74
2022/04/14 04:07:39;;;;;;;5.80;3.50;;;17.40;85.10;;;;;;2013904;28;20180;-73
2022/04/14 04:08:38;;;;;;;8.02;3.05;;;17.40;85.20;;;;;;2014108;28;20173;-74
2022/04/14 04:09:38;;;;;;;6.20;3.10;;;17.40;85.10;;;;;;2014525;28;20203;-74
2022/04/14 04:10:37;;;;;;;4.60;3.33;;;17.40;85.10;;;;;;2014116;28;20184;-75
2022/04/14 04:11:35;;;;;;;8.13;3.03;;;17.40;85.10;;;;;;2014005;28;20526;-74
2022/04/14 04:12:34;;;;;;;3.90;2.73;;;17.40;85.10;;;;;;2017494;28;20172;-75
2022/04/14 04:13:32;;;;;;;4.63;3.07;;;17.40;85.20;;;;;;2018218;28;20617;-74
2022/04/14 04:14:31;;;;;;;4.73;2.80;;;17.40;85.10;;;;;;2018893;28;20192;-75
2022/04/14 04:15:30;;;;;;;5.30;2.70;;;17.40;85.10;;;;;;2020427;28;20177;-73
2022/04/14 04:16:28;;;;;;;6.23;2.73;;;17.40;85.10;;;;;;2016622;28;20208;-76
2022/04/14 04:17:27;;;;;;;12.00;3.83;;;17.40;85.20;;;;;;2016298;28;20440;-74
2022/04/14 04:18:25;;;;;;;6.83;3.03;;;17.40;85.20;;;;;;2017110;28;20199;-74
2022/04/14 04:19:24;;;;;;;6.00;3.27;;;17.40;85.20;;;;;;2015213;28;20245;-74
2022/04/14 04:20:22;;;;;;;7.37;3.00;;;17.40;85.20;;;;;;2014218;28;20172;-74
2022/04/14 04:21:21;;;;;;;4.60;3.60;;;17.40;85.10;;;;;;2014219;28;20202;-74
2022/04/14 04:22:19;;;;;;;5.20;3.53;;;17.40;85.20;;;;;;2014200;28;20188;-73
2022/04/14 04:23:18;;;;;;;5.53;3.27;;;17.50;85.30;;;;;;2013961;28;20189;-74
2022/04/14 04:24:16;;;;;;;4.43;3.20;;;17.40;85.20;;;;;;2013959;28;20275;-74
2022/04/14 04:25:15;;;;;;;7.90;3.47;;;17.40;85.20;;;;;;2013860;28;20262;-74
2022/04/14 04:26:13;;;;;;;4.93;2.93;;;17.40;85.20;;;;;;2013668;28;20179;-74
2022/04/14 04:27:12;;;;;;;5.10;3.23;;;17.40;85.20;;;;;;2013780;28;20176;-74
2022/04/14 04:28:10;;;;;;;7.10;2.90;;;17.40;85.20;;;;;;2014043;28;20267;-74
2022/04/14 04:29:09;;;;;;;8.43;3.10;;;17.40;85.30;;;;;;2013648;28;20307;-74
2022/04/14 04:30:08;;;;;;;7.13;4.10;;;17.40;85.30;;;;;;2013848;28;20453;-74
2022/04/14 04:31:07;;;;;;;5.68;3.20;;;17.40;85.30;;;;;;2013786;28;20262;-74
2022/04/14 04:32:06;;;;;;;3.40;2.70;;;17.40;85.30;;;;;;2013742;28;20184;-74
2022/04/14 04:33:05;;;;;;;3.92;2.95;;;17.40;85.20;;;;;;2013686;28;20176;-74
2022/04/14 04:34:04;;;;;;;3.92;2.90;;;17.40;85.20;;;;;;2013847;28;20176;-73
2022/04/14 04:35:04;;;;;;;6.03;2.93;;;17.40;85.20;;;;;;2013875;28;20192;-74
2022/04/14 04:36:03;;;;;;;5.03;3.35;;;17.40;85.30;;;;;;2013847;28;20195;-74
2022/04/14 04:37:01;;;;;;;6.43;2.70;;;17.40;85.30;;;;;;2013636;28;20248;-74
2022/04/14 04:38:00;;;;;;;5.93;3.63;;;17.40;85.20;;;;;;2013671;28;20164;-74
2022/04/14 04:39:01;;;;;;;10.50;3.43;;;17.40;85.30;;;;;;2013690;28;20680;-74
2022/04/14 04:40:00;;;;;;;4.20;2.90;;;17.40;85.20;;;;;;2013230;28;20231;-74
2022/04/14 04:40:58;;;;;;;6.37;3.27;;;17.40;85.30;;;;;;2013201;28;20303;-74
2022/04/14 04:41:57;;;;;;;4.40;3.23;;;17.40;85.20;;;;;;2013789;28;20173;-75
2022/04/14 04:42:55;;;;;;;5.10;3.40;;;17.40;85.30;;;;;;2013806;28;20179;-74
2022/04/14 04:43:54;;;;;;;6.80;3.30;;;17.40;85.30;;;;;;2013767;28;20173;-74
2022/04/14 04:44:52;;;;;;;5.07;2.57;;;17.40;85.30;;;;;;2013554;28;20360;-73
2022/04/14 04:45:51;;;;;;;3.23;2.53;;;17.40;85.20;;;;;;2013739;28;20172;-76
2022/04/14 04:46:49;;;;;;;5.50;3.23;;;17.40;85.20;;;;;;2013623;28;20702;-74
2022/04/14 04:47:48;;;;;;;4.90;3.33;;;17.40;85.30;;;;;;2013809;28;20181;-74
2022/04/14 04:48:46;;;;;;;3.60;2.93;;;17.40;85.30;;;;;;2013558;28;20204;-74
2022/04/14 04:49:45;;;;;;;3.80;2.77;;;17.40;85.30;;;;;;2013666;28;20175;-75
2022/04/14 04:50:44;;;;;;;6.67;3.20;;;17.40;85.30;;;;;;2013515;28;20203;-74
2022/04/14 04:51:42;;;;;;;5.37;2.77;;;17.40;85.30;;;;;;2013583;28;20515;-73
2022/04/14 04:52:41;;;;;;;4.90;3.50;;;17.40;85.30;;;;;;2013477;28;20597;-74
2022/04/14 04:53:39;;;;;;;5.70;2.97;;;17.40;85.40;;;;;;2013353;28;20538;-74
2022/04/14 04:54:38;;;;;;;6.07;3.70;;;17.40;85.30;;;;;;2013846;28;20167;-73
2022/04/14 04:55:36;;;;;;;4.10;2.80;;;17.40;85.30;;;;;;2013456;28;20169;-75
2022/04/14 04:56:35;;;;;;;6.13;3.20;;;17.40;85.30;;;;;;2013550;28;20220;-75
2022/04/14 04:57:33;;;;;;;7.10;3.80;;;17.40;85.30;;;;;;2013447;28;20535;-75
2022/04/14 04:58:32;;;;;;;7.47;3.97;;;17.40;85.30;;;;;;2013676;28;20168;-74
2022/04/14 04:59:31;;;;;;;5.50;3.20;;;17.40;85.30;;;;;;2013490;28;20185;-75
2022/04/14 05:00:29;;;;;;;11.68;3.17;;;17.40;85.30;;;;;;2012995;28;20188;-75
2022/04/14 05:01:28;;;;;;;3.90;2.93;;;17.40;85.40;;;;;;2013503;28;20180;-74
2022/04/14 05:02:26;;;;;;;5.17;3.23;;;17.40;85.40;;;;;;2013521;28;20176;-73
2022/04/14 05:03:25;;;;;;;4.77;3.10;;;17.40;85.30;;;;;;2013392;28;20619;-74
2022/04/14 05:04:23;;;;;;;5.30;3.57;;;17.40;85.30;;;;;;2013396;28;20230;-74
2022/04/14 05:05:23;;;;;;;4.60;2.90;;;17.10;85.00;;;;;;2012899;28;20255;-74
2022/04/14 05:06:22;;;;;;;4.90;3.03;;;17.40;85.30;;;;;;2004873;28;20243;-73